Time,TemperatureF,DewpointF,PressureIn,WindDirection,WindDirectionDegrees,WindSpeedMPH,WindSpeedGustMPH,Humidity,HourlyPrecipIn,Conditions,Clouds,dailyrainin,SolarRadiationWatts/m^2,SoftwareType,DateUTC
2013-09-11 00:01:00,70.3,68.8,29.88,NNE,23,0.0,0.0,95,0.00,,OVC060,0.00,0.00,VWS V14.01,2013-09-11 05:01:00,
2013-09-11 00:06:00,70.2,68.7,29.88,NNE,23,0.0,0.0,95,0.00,,OVC060,0.00,0.00,VWS V14.01,2013-09-11 05:06:00,
2013-09-11 00:11:00,70.2,68.7,29.88,NNE,23,0.0,0.0,95,0.00,,OVC060,0.00,0.00,VWS V14.01,2013-09-11 05:11:00,
2013-09-11 00:16:00,70.1,68.6,29.88,NNE,23,0.0,0.0,95,0.00,,OVC060,0.00,0.00,VWS V14.01,2013-09-11 05:16:00,
2013-09-11 00:21:00,70.0,68.5,29.88,NNE,23,0.0,0.0,95,0.00,,OVC060,0.00,0.00,VWS V14.01,2013-09-11 05:21:00,
2013-09-11 00:26:00,69.9,68.4,29.88,NNE,23,0.0,0.0,95,0.00,,OVC060,0.00,0.00,VWS V14.01,2013-09-11 05:26:00,
2013-09-11 00:31:00,69.8,68.3,29.88,NNE,23,0.0,0.0,95,0.00,,OVC070,0.00,0.00,VWS V14.01,2013-09-11 05:31:00,
2013-09-11 00:36:00,69.7,68.2,29.88,NNE,23,0.0,0.0,95,0.00,,OVC070,0.00,0.00,VWS V14.01,2013-09-11 05:36:00,
2013-09-11 00:41:00,69.6,68.1,29.88,NNE,23,0.0,0.0,95,0.00,,OVC070,0.00,0.00,VWS V14.01,2013-09-11 05:41:00,
2013-09-11 00:46:00,69.6,68.1,29.88,NNE,23,0.0,0.0,95,0.00,,OVC110,0.00,0.00,VWS V14.01,2013-09-11 05:46:00,
2013-09-11 00:51:00,69.5,68.0,29.88,NNE,23,0.0,0.0,95,0.00,,OVC110,0.00,0.00,VWS V14.01,2013-09-11 05:51:00,
2013-09-11 00:56:00,69.4,67.9,29.88,NNE,23,0.0,0.0,95,0.00,,OVC110,0.00,0.00,VWS V14.01,2013-09-11 05:56:00,
2013-09-11 01:01:00,69.3,67.8,29.88,NNE,23,0.0,0.0,95,0.00,,BKN110,0.00,0.00,VWS V14.01,2013-09-11 06:01:00,
2013-09-11 01:06:00,69.2,67.7,29.88,NNE,23,0.0,0.0,95,0.00,,BKN110,0.00,0.00,VWS V14.01,2013-09-11 06:06:00,
2013-09-11 01:11:00,69.2,67.7,29.88,NNE,23,0.0,0.0,95,0.00,,BKN110,0.00,0.00,VWS V14.01,2013-09-11 06:11:00,
2013-09-11 01:16:00,69.1,67.6,29.88,NNE,23,0.0,0.0,95,0.00,,BKN110,0.00,0.00,VWS V14.01,2013-09-11 06:16:00,
2013-09-11 01:21:00,69.0,67.5,29.88,NNE,23,0.0,0.0,95,0.00,,BKN110,0.00,0.00,VWS V14.01,2013-09-11 06:21:00,
2013-09-11 01:26:00,69.0,67.8,29.89,NNE,23,0.0,0.0,96,0.00,,BKN110,0.00,0.00,VWS V14.01,2013-09-11 06:26:00,
2013-09-11 01:31:00,69.0,67.8,29.89,NNE,23,0.0,0.0,96,0.00,,OVC110,0.00,0.00,VWS V14.01,2013-09-11 06:31:00,
2013-09-11 01:36:00,69.0,67.8,29.89,NNE,23,0.0,0.0,96,0.00,,OVC110,0.00,0.00,VWS V14.01,2013-09-11 06:36:00,
2013-09-11 01:41:00,69.0,67.8,29.89,NNE,23,0.0,0.0,96,0.00,,OVC110,0.00,0.00,VWS V14.01,2013-09-11 06:41:00,
2013-09-11 01:46:00,68.9,67.7,29.88,NNE,23,0.0,0.0,96,0.00,,OVC110,0.00,0.00,VWS V14.01,2013-09-11 06:46:00,
2013-09-11 01:51:00,68.9,67.7,29.89,NNE,23,0.0,0.0,96,0.00,,OVC110,0.00,0.00,VWS V14.01,2013-09-11 06:51:00,
2013-09-11 01:56:00,68.8,67.6,29.88,NNE,23,0.0,0.0,96,0.00,,OVC110,0.00,0.00,VWS V14.01,2013-09-11 06:56:00,
2013-09-11 02:01:00,68.8,67.6,29.88,NNE,23,0.0,0.0,96,0.00,,BKN120,0.00,0.00,VWS V14.01,2013-09-11 07:01:00,
2013-09-11 02:06:00,68.8,67.6,29.88,NNE,23,0.0,0.0,96,0.00,,BKN120,0.00,0.00,VWS V14.01,2013-09-11 07:06:00,
2013-09-11 02:11:00,68.8,67.6,29.88,NNE,23,0.0,0.0,96,0.00,,BKN120,0.00,0.00,VWS V14.01,2013-09-11 07:11:00,
2013-09-11 02:16:00,68.8,67.6,29.88,NNE,23,0.0,0.0,96,0.00,,BKN120,0.00,0.00,VWS V14.01,2013-09-11 07:16:00,
2013-09-11 02:21:00,68.7,67.5,29.88,NNE,23,0.0,0.0,96,0.00,,BKN120,0.00,0.00,VWS V14.01,2013-09-11 07:21:00,
2013-09-11 02:26:00,68.7,67.5,29.88,NNE,23,0.0,0.0,96,0.00,,BKN120,0.00,0.00,VWS V14.01,2013-09-11 07:26:00,
2013-09-11 02:31:00,68.6,67.4,29.88,NNE,23,0.0,0.0,96,0.00,,BKN120,0.00,0.00,VWS V14.01,2013-09-11 07:31:00,
2013-09-11 02:36:00,68.6,67.4,29.88,NNE,23,0.0,0.0,96,0.00,,BKN120,0.00,0.00,VWS V14.01,2013-09-11 07:36:00,
2013-09-11 02:41:00,68.5,67.3,29.89,NNE,23,0.0,0.0,96,0.00,,BKN120,0.00,0.00,VWS V14.01,2013-09-11 07:41:00,
2013-09-11 02:46:00,68.5,67.3,29.89,NNE,23,0.0,0.0,96,0.00,,OVC120,0.00,0.00,VWS V14.01,2013-09-11 07:46:00,
2013-09-11 02:51:00,68.3,67.1,29.89,NNE,23,0.0,0.0,96,0.00,,OVC120,0.00,0.00,VWS V14.01,2013-09-11 07:51:00,
2013-09-11 02:56:00,68.2,67.0,29.89,NNE,23,0.0,0.0,96,0.00,,OVC120,0.00,0.00,VWS V14.01,2013-09-11 07:56:00,
2013-09-11 03:01:00,68.0,66.8,29.89,NNE,23,0.0,0.0,96,0.00,,BKN120,0.00,0.00,VWS V14.01,2013-09-11 08:01:00,
2013-09-11 03:06:00,67.9,66.7,29.89,NNE,23,0.0,0.0,96,0.00,,BKN120,0.00,0.00,VWS V14.01,2013-09-11 08:06:00,
2013-09-11 03:11:00,67.7,66.5,29.88,NNE,23,0.0,0.0,96,0.00,,BKN120,0.00,0.00,VWS V14.01,2013-09-11 08:11:00,
2013-09-11 03:16:00,67.6,66.4,29.89,NNE,23,0.0,0.0,96,0.00,,BKN120,0.00,0.00,VWS V14.01,2013-09-11 08:16:00,
2013-09-11 03:21:00,67.4,66.2,29.88,NNE,23,0.0,0.0,96,0.00,,BKN120,0.00,0.00,VWS V14.01,2013-09-11 08:21:00,
2013-09-11 03:26:00,67.4,66.2,29.88,NNE,23,0.0,0.0,96,0.00,,BKN120,0.00,0.00,VWS V14.01,2013-09-11 08:26:00,
2013-09-11 03:31:00,67.3,66.1,29.88,NNE,23,0.0,0.0,96,0.00,,SCT120,0.00,0.00,VWS V14.01,2013-09-11 08:31:00,
2013-09-11 03:36:00,67.2,66.0,29.89,NNE,23,0.0,0.0,96,0.00,,SCT120,0.00,0.00,VWS V14.01,2013-09-11 08:36:00,
2013-09-11 03:41:00,67.0,65.8,29.88,NNE,23,0.0,0.0,96,0.00,,SCT120,0.00,0.00,VWS V14.01,2013-09-11 08:41:00,
2013-09-11 03:46:00,66.9,65.7,29.88,NNE,23,0.0,0.0,96,0.00,,BKN120,0.00,0.00,VWS V14.01,2013-09-11 08:46:00,
2013-09-11 03:51:00,66.8,65.6,29.88,NNE,23,0.0,0.0,96,0.00,,BKN120,0.00,0.00,VWS V14.01,2013-09-11 08:51:00,
2013-09-11 03:56:00,66.7,65.5,29.88,NNE,23,0.0,0.0,96,0.00,,BKN120,0.00,0.00,VWS V14.01,2013-09-11 08:56:00,
2013-09-11 04:01:00,66.7,65.5,29.88,NNE,23,0.0,0.0,96,0.00,,SCT120,0.00,0.00,VWS V14.01,2013-09-11 09:01:00,
2013-09-11 04:06:00,66.6,65.4,29.88,NNE,23,0.0,0.0,96,0.00,,SCT120,0.00,0.00,VWS V14.01,2013-09-11 09:06:00,
2013-09-11 04:11:00,66.5,65.3,29.88,NNE,23,0.0,0.0,96,0.00,,SCT120,0.00,0.00,VWS V14.01,2013-09-11 09:11:00,
2013-09-11 04:16:00,66.4,65.2,29.89,NNE,23,0.0,0.0,96,0.00,,SCT120,0.00,0.00,VWS V14.01,2013-09-11 09:16:00,
2013-09-11 04:21:00,66.3,65.1,29.89,NNE,23,0.0,0.0,96,0.00,,SCT120,0.00,0.00,VWS V14.01,2013-09-11 09:21:00,
2013-09-11 04:26:00,66.2,65.0,29.89,NNE,23,0.0,0.0,96,0.00,,SCT120,0.00,0.00,VWS V14.01,2013-09-11 09:26:00,
2013-09-11 04:31:00,66.2,65.0,29.89,NNE,23,0.0,0.0,96,0.00,,SCT120,0.00,0.00,VWS V14.01,2013-09-11 09:31:00,
2013-09-11 04:36:00,66.1,64.9,29.90,NNE,23,0.0,0.0,96,0.00,,SCT120,0.00,0.00,VWS V14.01,2013-09-11 09:36:00,
2013-09-11 04:41:00,66.0,64.8,29.90,NNE,23,0.0,0.0,96,0.00,,SCT120,0.00,0.00,VWS V14.01,2013-09-11 09:41:00,
2013-09-11 04:46:00,66.0,64.8,29.90,NNE,23,0.0,0.0,96,0.00,,CLR,0.00,0.00,VWS V14.01,2013-09-11 09:46:00,
2013-09-11 04:51:00,65.9,64.7,29.90,NNE,23,0.0,0.0,96,0.00,,CLR,0.00,0.00,VWS V14.01,2013-09-11 09:51:00,
2013-09-11 04:56:00,65.8,64.6,29.91,NNE,23,0.0,0.0,96,0.00,,CLR,0.00,0.00,VWS V14.01,2013-09-11 09:56:00,
2013-09-11 05:01:00,65.8,64.6,29.91,NNE,23,0.0,0.0,96,0.00,,CLR,0.00,0.00,VWS V14.01,2013-09-11 10:01:00,
2013-09-11 05:06:00,65.7,64.5,29.91,NNE,23,0.0,0.0,96,0.00,,CLR,0.00,0.00,VWS V14.01,2013-09-11 10:06:00,
2013-09-11 05:11:00,65.7,64.5,29.91,NNE,23,0.0,0.0,96,0.00,,CLR,0.00,0.00,VWS V14.01,2013-09-11 10:11:00,
2013-09-11 05:16:00,65.6,64.4,29.91,NNE,23,0.0,0.0,96,0.00,,CLR,0.00,0.00,VWS V14.01,2013-09-11 10:16:00,
2013-09-11 05:21:00,65.6,64.4,29.91,NNE,23,0.0,0.0,96,0.00,,CLR,0.00,0.00,VWS V14.01,2013-09-11 10:21:00,
2013-09-11 05:26:00,65.5,64.3,29.91,NNE,23,0.0,0.0,96,0.00,,CLR,0.00,0.00,VWS V14.01,2013-09-11 10:26:00,
2013-09-11 05:31:00,65.5,64.3,29.91,NNE,23,0.0,0.0,96,0.00,,CLR,0.00,0.00,VWS V14.01,2013-09-11 10:31:00,
2013-09-11 05:36:00,65.4,64.2,29.91,NNE,23,0.0,0.0,96,0.00,,CLR,0.00,0.00,VWS V14.01,2013-09-11 10:36:00,
2013-09-11 05:41:00,65.3,64.1,29.91,NNE,23,0.0,0.0,96,0.00,,CLR,0.00,0.00,VWS V14.01,2013-09-11 10:41:00,
2013-09-11 05:46:00,65.3,64.1,29.92,NNE,23,0.0,0.0,96,0.00,,CLR,0.00,0.00,VWS V14.01,2013-09-11 10:46:00,
2013-09-11 05:51:00,65.2,64.0,29.92,NNE,23,0.0,0.0,96,0.00,,CLR,0.00,0.00,VWS V14.01,2013-09-11 10:51:00,
2013-09-11 05:56:00,65.1,63.9,29.92,NNE,23,0.0,0.0,96,0.00,,CLR,0.00,0.00,VWS V14.01,2013-09-11 10:56:00,
2013-09-11 06:01:00,65.1,63.9,29.92,NNE,23,0.0,0.0,96,0.00,,CLR,0.00,0.00,VWS V14.01,2013-09-11 11:01:00,
2013-09-11 06:06:00,65.0,63.8,29.92,NNE,23,0.0,0.0,96,0.00,,CLR,0.00,0.00,VWS V14.01,2013-09-11 11:06:00,
2013-09-11 06:11:00,65.0,63.8,29.93,NNE,23,0.0,0.0,96,0.00,,CLR,0.00,0.00,VWS V14.01,2013-09-11 11:11:00,
2013-09-11 06:16:00,65.0,63.8,29.93,NNE,23,0.0,0.0,96,0.00,,CLR,0.00,0.00,VWS V14.01,2013-09-11 11:16:00,
2013-09-11 06:21:00,65.0,63.8,29.93,NNE,23,0.0,0.0,96,0.00,,CLR,0.00,0.00,VWS V14.01,2013-09-11 11:21:00,
2013-09-11 06:26:00,65.0,63.8,29.93,NNE,23,0.0,0.0,96,0.00,,CLR,0.00,0.00,VWS V14.01,2013-09-11 11:26:00,
2013-09-11 06:31:00,65.1,64.2,29.94,NNE,23,0.0,0.0,97,0.00,,CLR,0.00,0.00,VWS V14.01,2013-09-11 11:31:00,
2013-09-11 06:36:00,65.1,64.2,29.93,NNE,23,0.0,0.0,97,0.00,,CLR,0.00,0.00,VWS V14.01,2013-09-11 11:36:00,
2013-09-11 06:41:00,65.0,64.1,29.93,NNE,23,0.0,0.0,97,0.00,,CLR,0.00,0.00,VWS V14.01,2013-09-11 11:41:00,
2013-09-11 06:46:00,65.0,64.1,29.94,NNE,23,0.0,1.0,97,0.00,,CLR,0.00,0.00,VWS V14.01,2013-09-11 11:46:00,
2013-09-11 06:51:00,65.0,64.1,29.94,NNE,23,0.0,0.0,97,0.00,,CLR,0.00,5.00,VWS V14.01,2013-09-11 11:51:00,
2013-09-11 06:56:00,65.1,64.2,29.94,NNE,23,0.0,0.0,97,0.00,,CLR,0.00,0.00,VWS V14.01,2013-09-11 11:56:00,
2013-09-11 07:01:00,65.1,64.2,29.95,NNE,23,0.0,0.0,97,0.00,,CLR,0.00,5.00,VWS V14.01,2013-09-11 12:01:00,
2013-09-11 07:06:00,65.1,64.2,29.94,NNE,23,0.0,0.0,97,0.00,,CLR,0.00,5.00,VWS V14.01,2013-09-11 12:06:00,
2013-09-11 07:11:00,65.1,64.2,29.95,NNE,23,0.0,0.0,97,0.00,,CLR,0.00,9.00,VWS V14.01,2013-09-11 12:11:00,
2013-09-11 07:16:00,65.2,64.3,29.94,NNE,23,0.0,0.0,97,0.00,,CLR,0.00,11.00,VWS V14.01,2013-09-11 12:16:00,
2013-09-11 07:21:00,65.1,64.2,29.95,NNE,23,0.0,0.0,97,0.00,,CLR,0.00,16.00,VWS V14.01,2013-09-11 12:21:00,
2013-09-11 07:26:00,65.1,64.2,29.94,NNE,23,0.0,0.0,97,0.00,,CLR,0.00,30.00,VWS V14.01,2013-09-11 12:26:00,
2013-09-11 07:31:00,65.1,64.2,29.94,NNE,23,0.0,0.0,97,0.00,,CLR,0.00,32.00,VWS V14.01,2013-09-11 12:31:00,
2013-09-11 07:36:00,65.1,64.2,29.94,NNE,23,0.0,0.0,97,0.00,,CLR,0.00,39.00,VWS V14.01,2013-09-11 12:36:00,
2013-09-11 07:41:00,65.1,64.2,29.95,NNE,23,0.0,0.0,97,0.00,,CLR,0.00,42.00,VWS V14.01,2013-09-11 12:41:00,
2013-09-11 07:46:00,65.2,64.3,29.95,NNE,23,0.0,0.0,97,0.00,,CLR,0.00,77.00,VWS V14.01,2013-09-11 12:46:00,
2013-09-11 07:51:00,65.3,64.4,29.95,NNE,23,0.0,0.0,97,0.00,,CLR,0.00,81.00,VWS V14.01,2013-09-11 12:51:00,
2013-09-11 07:56:00,65.5,64.6,29.95,NNE,23,0.0,0.0,97,0.00,,CLR,0.00,63.00,VWS V14.01,2013-09-11 12:56:00,
2013-09-11 08:01:00,65.7,64.8,29.95,NNE,23,0.0,0.0,97,0.00,,CLR,0.00,63.00,VWS V14.01,2013-09-11 13:01:00,
2013-09-11 08:06:00,65.9,65.0,29.94,NNE,23,0.0,0.0,97,0.00,,CLR,0.00,62.00,VWS V14.01,2013-09-11 13:06:00,
2013-09-11 08:11:00,66.1,65.2,29.94,NNE,23,0.0,0.0,97,0.00,,CLR,0.00,69.00,VWS V14.01,2013-09-11 13:11:00,
2013-09-11 08:16:00,66.2,65.0,29.94,NNE,23,0.0,0.0,96,0.00,,CLR,0.00,95.00,VWS V14.01,2013-09-11 13:16:00,
2013-09-11 08:21:00,66.3,65.1,29.94,NNE,23,0.0,0.0,96,0.00,,CLR,0.00,97.00,VWS V14.01,2013-09-11 13:21:00,
2013-09-11 08:26:00,66.5,65.3,29.94,NNE,23,0.0,0.0,96,0.00,,CLR,0.00,109.00,VWS V14.01,2013-09-11 13:26:00,
2013-09-11 08:31:00,66.7,65.5,29.94,NNE,23,0.0,0.0,96,0.00,,CLR,0.00,153.00,VWS V14.01,2013-09-11 13:31:00,
2013-09-11 08:36:00,66.9,65.7,29.94,NNE,23,0.0,0.0,96,0.00,,CLR,0.00,141.00,VWS V14.01,2013-09-11 13:36:00,
2013-09-11 08:41:00,67.1,65.9,29.94,NNE,23,0.0,1.0,96,0.00,,CLR,0.00,102.00,VWS V14.01,2013-09-11 13:41:00,
2013-09-11 08:46:00,67.3,66.1,29.94,NNE,23,0.0,1.0,96,0.00,,CLR,0.00,107.00,VWS V14.01,2013-09-11 13:46:00,
2013-09-11 08:51:00,67.4,65.9,29.94,NNE,23,0.0,0.0,95,0.00,,CLR,0.00,114.00,VWS V14.01,2013-09-11 13:51:00,
2013-09-11 08:56:00,67.4,65.9,29.94,North,360,0.0,2.0,95,0.00,,CLR,0.00,113.00,VWS V14.01,2013-09-11 13:56:00,
2013-09-11 09:01:00,67.5,65.7,29.93,NNW,328,0.0,3.0,94,0.00,,CLR,0.00,111.00,VWS V14.01,2013-09-11 14:01:00,
2013-09-11 09:06:00,67.6,65.5,29.93,SW,225,0.0,3.0,93,0.00,,CLR,0.00,121.00,VWS V14.01,2013-09-11 14:06:00,
2013-09-11 09:11:00,67.7,65.3,29.93,South,185,0.0,1.0,92,0.00,,CLR,0.00,127.00,VWS V14.01,2013-09-11 14:11:00,
2013-09-11 09:16:00,67.9,65.5,29.93,West,278,0.0,2.0,92,0.00,,CLR,0.00,160.00,VWS V14.01,2013-09-11 14:16:00,
2013-09-11 09:21:00,68.1,65.7,29.93,West,280,1.0,3.0,92,0.00,,CLR,0.00,149.00,VWS V14.01,2013-09-11 14:21:00,
2013-09-11 09:26:00,68.3,65.6,29.93,SW,226,3.0,4.0,91,0.00,,CLR,0.00,141.00,VWS V14.01,2013-09-11 14:26:00,
2013-09-11 09:31:00,68.4,65.4,29.93,West,281,1.0,4.0,90,0.00,,CLR,0.00,142.00,VWS V14.01,2013-09-11 14:31:00,
2013-09-11 09:36:00,68.6,65.6,29.93,NNW,329,0.0,5.0,90,0.00,,CLR,0.00,153.00,VWS V14.01,2013-09-11 14:36:00,
2013-09-11 09:41:00,68.8,65.4,29.93,NW,306,0.0,1.0,89,0.00,,CLR,0.00,162.00,VWS V14.01,2013-09-11 14:41:00,
2013-09-11 09:46:00,68.8,65.1,29.93,West,269,1.0,3.0,88,0.00,,CLR,0.00,179.00,VWS V14.01,2013-09-11 14:46:00,
2013-09-11 09:51:00,69.0,65.0,29.93,North,350,0.0,1.0,87,0.00,,CLR,0.00,186.00,VWS V14.01,2013-09-11 14:51:00,
2013-09-11 09:56:00,69.2,64.8,29.93,NNW,339,0.0,3.0,86,0.00,,CLR,0.00,188.00,VWS V14.01,2013-09-11 14:56:00,
2013-09-11 10:01:00,69.3,64.9,29.93,West,269,0.0,1.0,86,0.00,,CLR,0.00,188.00,VWS V14.01,2013-09-11 15:01:00,
2013-09-11 10:06:00,69.5,65.1,29.93,West,267,0.0,1.0,86,0.00,,CLR,0.00,274.00,VWS V14.01,2013-09-11 15:06:00,
2013-09-11 10:11:00,69.8,65.1,29.93,NNW,340,0.0,4.0,85,0.00,,CLR,0.00,257.00,VWS V14.01,2013-09-11 15:11:00,
2013-09-11 10:16:00,70.1,65.4,29.93,NNW,337,0.0,4.0,85,0.00,,CLR,0.00,230.00,VWS V14.01,2013-09-11 15:16:00,
2013-09-11 10:21:00,70.4,65.3,29.92,NNW,344,5.0,6.0,84,0.00,,CLR,0.00,241.00,VWS V14.01,2013-09-11 15:21:00,
2013-09-11 10:26:00,70.7,65.3,29.92,NNW,344,0.0,7.0,83,0.00,,CLR,0.00,366.00,VWS V14.01,2013-09-11 15:26:00,
2013-09-11 10:31:00,71.1,66.0,29.92,NW,306,0.0,11.0,84,0.00,,CLR,0.00,780.00,VWS V14.01,2013-09-11 15:31:00,
2013-09-11 10:36:00,71.7,66.3,29.92,NNW,343,5.0,12.0,83,0.00,,CLR,0.00,682.00,VWS V14.01,2013-09-11 15:36:00,
2013-09-11 10:41:00,72.5,66.3,29.93,ENE,64,1.0,3.0,81,0.00,,CLR,0.00,513.00,VWS V14.01,2013-09-11 15:41:00,
2013-09-11 10:46:00,73.1,66.9,29.93,NNW,342,1.0,5.0,81,0.00,,CLR,0.00,302.00,VWS V14.01,2013-09-11 15:46:00,
2013-09-11 10:51:00,73.6,67.4,29.93,West,271,0.0,5.0,81,0.00,,CLR,0.00,534.00,VWS V14.01,2013-09-11 15:51:00,
2013-09-11 10:56:00,74.2,66.9,29.93,NNW,344,1.0,11.0,78,0.00,,CLR,0.00,617.00,VWS V14.01,2013-09-11 15:56:00,
2013-09-11 11:01:00,74.5,66.8,29.93,WNW,295,1.0,5.0,77,0.00,,CLR,0.00,388.00,VWS V14.01,2013-09-11 16:01:00,
2013-09-11 11:06:00,74.6,66.9,29.93,NW,316,3.0,6.0,77,0.00,,CLR,0.00,320.00,VWS V14.01,2013-09-11 16:06:00,
2013-09-11 11:11:00,74.7,66.6,29.93,NNW,342,0.0,1.0,76,0.00,,CLR,0.00,617.00,VWS V14.01,2013-09-11 16:11:00,
2013-09-11 11:16:00,75.0,66.6,29.93,NW,317,0.0,3.0,75,0.00,,CLR,0.00,320.00,VWS V14.01,2013-09-11 16:16:00,
2013-09-11 11:21:00,75.0,66.2,29.93,NW,317,1.0,1.0,74,0.00,,CLR,0.00,329.00,VWS V14.01,2013-09-11 16:21:00,
2013-09-11 11:26:00,74.6,65.8,29.93,NW,319,1.0,5.0,74,0.00,,CLR,0.00,443.00,VWS V14.01,2013-09-11 16:26:00,
2013-09-11 11:31:00,74.5,66.1,29.93,SW,232,0.0,5.0,75,0.00,,CLR,0.00,403.00,VWS V14.01,2013-09-11 16:31:00,
2013-09-11 11:36:00,74.5,66.4,29.93,NNW,338,1.0,5.0,76,0.00,,CLR,0.00,385.00,VWS V14.01,2013-09-11 16:36:00,
2013-09-11 11:41:00,74.4,66.0,29.92,NW,317,1.0,3.0,75,0.00,,CLR,0.00,229.00,VWS V14.01,2013-09-11 16:41:00,
2013-09-11 11:46:00,74.2,66.2,29.93,NNW,336,0.0,3.0,76,0.00,,CLR,0.00,302.00,VWS V14.01,2013-09-11 16:46:00,
2013-09-11 11:51:00,74.6,66.5,29.92,ESE,108,0.0,2.0,76,0.00,,CLR,0.00,654.00,VWS V14.01,2013-09-11 16:51:00,
2013-09-11 11:56:00,75.2,67.1,29.93,West,281,0.0,4.0,76,0.00,,CLR,0.00,534.00,VWS V14.01,2013-09-11 16:56:00,
2013-09-11 12:01:00,75.8,66.9,29.93,NW,306,0.0,6.0,74,0.00,,CLR,0.00,534.00,VWS V14.01,2013-09-11 17:01:00,
2013-09-11 12:06:00,75.9,65.8,29.93,SW,236,5.0,10.0,71,0.00,,CLR,0.00,603.00,VWS V14.01,2013-09-11 17:06:00,
2013-09-11 12:11:00,76.2,66.1,29.93,NW,313,0.0,7.0,71,0.00,,CLR,0.00,570.00,VWS V14.01,2013-09-11 17:11:00,
2013-09-11 12:16:00,76.2,66.5,29.93,North,360,0.0,7.0,72,0.00,,CLR,0.00,527.00,VWS V14.01,2013-09-11 17:16:00,
2013-09-11 12:21:00,77.2,67.1,29.93,WNW,286,0.0,1.0,71,0.00,,CLR,0.00,708.00,VWS V14.01,2013-09-11 17:21:00,
2013-09-11 12:26:00,77.6,65.8,29.93,West,278,0.0,4.0,67,0.00,,CLR,0.00,559.00,VWS V14.01,2013-09-11 17:26:00,
2013-09-11 12:31:00,77.9,66.1,29.93,North,10,0.0,1.0,67,0.00,,CLR,0.00,831.00,VWS V14.01,2013-09-11 17:31:00,
2013-09-11 12:36:00,78.3,66.0,29.93,West,279,0.0,4.0,66,0.00,,CLR,0.00,851.00,VWS V14.01,2013-09-11 17:36:00,
2013-09-11 12:41:00,78.9,64.3,29.93,NW,321,1.0,1.0,61,0.00,,CLR,0.00,786.00,VWS V14.01,2013-09-11 17:41:00,
2013-09-11 12:46:00,79.3,65.2,29.92,NW,321,1.0,2.0,62,0.00,,CLR,0.00,856.00,VWS V14.01,2013-09-11 17:46:00,
2013-09-11 12:51:00,79.1,65.0,29.92,NNW,346,0.0,4.0,62,0.00,,CLR,0.00,817.00,VWS V14.01,2013-09-11 17:51:00,
2013-09-11 12:56:00,79.0,64.9,29.92,NNW,338,0.0,4.0,62,0.00,,CLR,0.00,738.00,VWS V14.01,2013-09-11 17:56:00,
2013-09-11 13:01:00,79.5,63.9,29.92,West,269,0.0,0.0,59,0.00,,CLR,0.00,858.00,VWS V14.01,2013-09-11 18:01:00,
2013-09-11 13:06:00,79.9,65.3,29.92,WSW,241,0.0,5.0,61,0.00,,CLR,0.00,842.00,VWS V14.01,2013-09-11 18:06:00,
2013-09-11 13:11:00,80.6,65.0,29.92,NW,314,0.0,5.0,59,0.00,,CLR,0.00,840.00,VWS V14.01,2013-09-11 18:11:00,
2013-09-11 13:16:00,80.9,64.8,29.92,NW,317,0.0,5.0,58,0.00,,CLR,0.00,840.00,VWS V14.01,2013-09-11 18:16:00,
2013-09-11 13:21:00,81.0,64.3,29.91,NW,310,0.0,1.0,57,0.00,,CLR,0.00,835.00,VWS V14.01,2013-09-11 18:21:00,
2013-09-11 13:26:00,81.2,65.0,29.91,NNW,342,0.0,4.0,58,0.00,,CLR,0.00,831.00,VWS V14.01,2013-09-11 18:26:00,
2013-09-11 13:31:00,81.6,63.9,29.92,NNW,343,0.0,0.0,55,0.00,,CLR,0.00,828.00,VWS V14.01,2013-09-11 18:31:00,
2013-09-11 13:36:00,82.0,63.7,29.91,ENE,64,0.0,3.0,54,0.00,,CLR,0.00,828.00,VWS V14.01,2013-09-11 18:36:00,
2013-09-11 13:41:00,82.4,63.6,29.91,NNE,31,0.0,2.0,53,0.00,,CLR,0.00,823.00,VWS V14.01,2013-09-11 18:41:00,
2013-09-11 13:46:00,82.4,64.1,29.91,WNW,282,1.0,4.0,54,0.00,,CLR,0.00,817.00,VWS V14.01,2013-09-11 18:46:00,
2013-09-11 13:51:00,82.8,62.8,29.91,West,274,0.0,0.0,51,0.00,,CLR,0.00,812.00,VWS V14.01,2013-09-11 18:51:00,
2013-09-11 13:56:00,82.9,62.9,29.91,NNW,332,0.0,2.0,51,0.00,,CLR,0.00,810.00,VWS V14.01,2013-09-11 18:56:00,
2013-09-11 14:01:00,83.3,63.3,29.91,WNW,298,0.0,2.0,51,0.00,,CLR,0.00,803.00,VWS V14.01,2013-09-11 19:01:00,
2013-09-11 14:06:00,83.6,63.0,29.91,NNW,338,0.0,5.0,50,0.00,,CLR,0.00,795.00,VWS V14.01,2013-09-11 19:06:00,
2013-09-11 14:11:00,83.6,64.1,29.91,WSW,240,0.0,1.0,52,0.00,,CLR,0.00,786.00,VWS V14.01,2013-09-11 19:11:00,
2013-09-11 14:16:00,83.8,63.2,29.90,WSW,250,0.0,1.0,50,0.00,,CLR,0.00,782.00,VWS V14.01,2013-09-11 19:16:00,
2013-09-11 14:21:00,83.8,62.6,29.90,WNW,303,0.0,1.0,49,0.00,,CLR,0.00,761.00,VWS V14.01,2013-09-11 19:21:00,
2013-09-11 14:26:00,83.9,62.7,29.90,WNW,303,0.0,1.0,49,0.00,,CLR,0.00,761.00,VWS V14.01,2013-09-11 19:26:00,
2013-09-11 14:31:00,84.4,63.8,29.90,North,360,0.0,0.0,50,0.00,,CLR,0.00,756.00,VWS V14.01,2013-09-11 19:31:00,
2013-09-11 14:36:00,84.5,63.8,29.89,SW,229,0.0,5.0,50,0.00,,CLR,0.00,745.00,VWS V14.01,2013-09-11 19:36:00,
2013-09-11 14:41:00,84.0,63.4,29.90,NW,321,0.0,1.0,50,0.00,,CLR,0.00,738.00,VWS V14.01,2013-09-11 19:41:00,
2013-09-11 14:46:00,84.6,63.3,29.89,NW,319,1.0,2.0,49,0.00,,CLR,0.00,707.00,VWS V14.01,2013-09-11 19:46:00,
2013-09-11 14:51:00,84.3,62.5,29.89,WNW,296,1.0,1.0,48,0.00,,CLR,0.00,717.00,VWS V14.01,2013-09-11 19:51:00,
2013-09-11 14:56:00,84.7,62.9,29.89,WNW,297,1.0,2.0,48,0.00,,CLR,0.00,708.00,VWS V14.01,2013-09-11 19:56:00,
2013-09-11 15:01:00,85.1,62.6,29.89,NNW,338,0.0,2.0,47,0.00,,CLR,0.00,686.00,VWS V14.01,2013-09-11 20:01:00,
2013-09-11 15:06:00,85.0,61.9,29.89,NNW,345,0.0,3.0,46,0.00,,CLR,0.00,664.00,VWS V14.01,2013-09-11 20:06:00,
2013-09-11 15:11:00,85.0,62.5,29.89,NNW,338,5.0,5.0,47,0.00,,CLR,0.00,696.00,VWS V14.01,2013-09-11 20:11:00,
2013-09-11 15:16:00,85.2,61.5,29.89,WNW,296,0.0,5.0,45,0.00,,CLR,0.00,705.00,VWS V14.01,2013-09-11 20:16:00,
2013-09-11 15:21:00,85.4,62.3,29.89,NW,323,0.0,0.0,46,0.00,,CLR,0.00,605.00,VWS V14.01,2013-09-11 20:21:00,
2013-09-11 15:26:00,85.6,61.8,29.89,NW,317,3.0,3.0,45,0.00,,CLR,0.00,638.00,VWS V14.01,2013-09-11 20:26:00,
2013-09-11 15:31:00,85.5,61.1,29.89,NW,305,1.0,1.0,44,0.00,,CLR,0.00,633.00,VWS V14.01,2013-09-11 20:31:00,
2013-09-11 15:35:00,85.5,61.1,29.89,NNW,339,2.0,3.0,44,0.00,,CLR,0.00,137.00,VWS V14.01,2013-09-11 20:35:00,
2013-09-11 15:41:00,85.2,60.8,29.88,NW,311,0.0,1.0,44,0.00,,CLR,0.00,111.00,VWS V14.01,2013-09-11 20:41:00,
2013-09-11 15:45:00,84.4,60.1,29.88,NNE,31,0.0,3.0,44,0.00,,SCT075,0.00,325.00,VWS V14.01,2013-09-11 20:45:00,
2013-09-11 15:51:00,83.8,60.8,29.88,SSW,206,0.0,2.0,46,0.00,,SCT075,0.00,202.00,VWS V14.01,2013-09-11 20:51:00,
2013-09-11 15:55:00,83.7,62.5,29.88,WSW,248,1.0,3.0,49,0.00,,SCT075,0.00,74.00,VWS V14.01,2013-09-11 20:55:00,
2013-09-11 16:00:00,83.7,62.5,29.88,WSW,248,0.0,0.0,49,0.00,,BKN080,0.00,65.00,VWS V14.01,2013-09-11 21:00:00,
2013-09-11 16:05:00,83.6,63.6,29.88,WSW,248,0.0,1.0,51,0.00,,BKN080,0.00,88.00,VWS V14.01,2013-09-11 21:05:00,
2013-09-11 16:10:00,82.9,62.9,29.89,NW,316,0.0,2.0,51,0.00,,BKN080,0.00,209.00,VWS V14.01,2013-09-11 21:10:00,
2013-09-11 16:15:00,82.7,63.3,29.88,NW,315,0.0,2.0,52,0.00,,BKN080,0.00,153.00,VWS V14.01,2013-09-11 21:15:00,
2013-09-11 16:20:00,82.8,62.8,29.88,NW,309,0.0,1.0,51,0.00,,BKN080,0.00,127.00,VWS V14.01,2013-09-11 21:20:00,
2013-09-11 16:25:00,82.9,63.5,29.89,WNW,300,0.0,1.0,52,0.00,,BKN080,0.00,70.00,VWS V14.01,2013-09-11 21:25:00,
2013-09-11 16:30:00,82.7,62.8,29.89,NW,308,1.0,1.0,51,0.00,,BKN080,0.00,60.00,VWS V14.01,2013-09-11 21:30:00,
2013-09-11 16:35:00,82.3,62.9,29.89,NW,308,0.0,1.0,52,0.00,,BKN080,0.00,69.00,VWS V14.01,2013-09-11 21:35:00,
2013-09-11 16:40:00,81.9,63.1,29.89,NW,308,0.0,0.0,53,0.00,,BKN080,0.00,76.00,VWS V14.01,2013-09-11 21:40:00,
2013-09-11 16:45:00,81.5,62.7,29.89,NW,308,0.0,1.0,53,0.00,,SCT080,0.00,97.00,VWS V14.01,2013-09-11 21:45:00,
2013-09-11 16:50:00,81.3,62.5,29.88,NW,308,0.0,1.0,53,0.00,,SCT080,0.00,62.00,VWS V14.01,2013-09-11 21:50:00,
2013-09-11 16:55:00,81.3,62.5,29.88,NW,308,1.0,1.0,53,0.00,,SCT080,0.00,58.00,VWS V14.01,2013-09-11 21:55:00,
2013-09-11 17:00:00,81.6,62.8,29.88,NW,308,0.0,0.0,53,0.00,,SCT090,0.00,74.00,VWS V14.01,2013-09-11 22:00:00,
2013-09-11 17:05:00,81.8,62.5,29.88,NW,308,0.0,1.0,52,0.00,,SCT090,0.00,86.00,VWS V14.01,2013-09-11 22:05:00,
2013-09-11 17:10:00,82.0,63.2,29.88,NW,308,0.0,1.0,53,0.00,,SCT090,0.00,86.00,VWS V14.01,2013-09-11 22:10:00,
2013-09-11 17:15:00,82.1,62.8,29.88,NW,306,4.0,4.0,52,0.00,,SCT090,0.00,49.00,VWS V14.01,2013-09-11 22:15:00,
2013-09-11 17:20:00,82.1,62.8,29.88,NW,315,0.0,1.0,52,0.00,,SCT090,0.00,23.00,VWS V14.01,2013-09-11 22:20:00,
2013-09-11 17:25:00,81.9,62.6,29.88,NW,315,0.0,1.0,52,0.00,,SCT090,0.00,40.00,VWS V14.01,2013-09-11 22:25:00,
2013-09-11 17:30:00,81.6,62.8,29.88,NW,315,0.0,1.0,53,0.00,,SCT090,0.00,39.00,VWS V14.01,2013-09-11 22:30:00,
2013-09-11 17:35:00,81.4,62.6,29.88,West,268,0.0,6.0,53,0.00,,SCT090,0.00,67.00,VWS V14.01,2013-09-11 22:35:00,
2013-09-11 17:40:00,81.1,62.9,29.88,West,269,0.0,1.0,54,0.00,,SCT090,0.00,60.00,VWS V14.01,2013-09-11 22:40:00,
2013-09-11 17:45:00,80.9,63.2,29.88,West,269,0.0,1.0,55,0.00,,SCT090,0.00,60.00,VWS V14.01,2013-09-11 22:45:00,
2013-09-11 17:50:00,80.9,63.8,29.88,West,269,1.0,1.0,56,0.00,,SCT090,0.00,47.00,VWS V14.01,2013-09-11 22:50:00,
2013-09-11 17:55:00,81.0,63.8,29.88,West,269,0.0,1.0,56,0.00,,SCT090,0.00,19.00,VWS V14.01,2013-09-11 22:55:00,
2013-09-11 18:00:00,80.9,64.2,29.88,SW,217,0.0,0.0,57,0.00,,CLR,0.00,14.00,VWS V14.01,2013-09-11 23:00:00,
2013-09-11 18:05:00,80.7,64.6,29.88,SW,217,0.0,1.0,58,0.00,,CLR,0.00,18.00,VWS V14.01,2013-09-11 23:05:00,
2013-09-11 18:10:00,80.4,64.8,29.88,SW,217,0.0,0.0,59,0.00,,CLR,0.00,30.00,VWS V14.01,2013-09-11 23:10:00,
2013-09-11 18:15:00,80.2,64.6,29.88,SW,217,0.0,1.0,59,0.00,,CLR,0.00,39.00,VWS V14.01,2013-09-11 23:15:00,
2013-09-11 18:20:00,80.1,65.0,29.87,SW,217,0.0,0.0,60,0.00,,CLR,0.00,25.00,VWS V14.01,2013-09-11 23:20:00,
2013-09-11 18:25:00,80.0,64.9,29.87,NNW,348,0.0,7.0,60,0.00,,CLR,0.00,44.00,VWS V14.01,2013-09-11 23:25:00,
2013-09-11 18:30:00,79.9,64.8,29.87,NNW,348,0.0,0.0,60,0.00,,SCT100,0.00,30.00,VWS V14.01,2013-09-11 23:30:00,
2013-09-11 18:35:00,79.8,64.7,29.87,NNW,348,0.0,1.0,60,0.00,,SCT100,0.00,18.00,VWS V14.01,2013-09-11 23:35:00,
2013-09-11 18:40:00,79.6,64.5,29.87,North,350,0.0,0.0,60,0.00,,SCT100,0.00,16.00,VWS V14.01,2013-09-11 23:40:00,
2013-09-11 18:45:00,79.4,64.3,29.87,NNW,348,0.0,1.0,60,0.00,,BKN090,0.00,7.00,VWS V14.01,2013-09-11 23:45:00,
2013-09-11 18:50:00,79.2,64.6,29.87,NNW,348,0.0,0.0,61,0.00,,BKN090,0.00,5.00,VWS V14.01,2013-09-11 23:50:00,
2013-09-11 18:55:00,79.0,64.4,29.87,NNW,348,0.0,0.0,61,0.00,,BKN090,0.00,5.00,VWS V14.01,2013-09-11 23:55:00,
2013-09-11 19:00:00,78.8,64.7,29.87,NNW,348,0.0,0.0,62,0.00,,BKN090,0.00,5.00,VWS V14.01,2013-09-12 00:00:00,
2013-09-11 19:05:00,78.4,64.3,29.87,NNW,348,0.0,0.0,62,0.00,,BKN090,0.00,0.00,VWS V14.01,2013-09-12 00:05:00,
2013-09-11 19:10:00,78.1,64.5,29.87,NNW,348,0.0,0.0,63,0.00,,BKN090,0.00,0.00,VWS V14.01,2013-09-12 00:10:00,
2013-09-11 19:15:00,77.8,64.2,29.87,NNW,348,0.0,0.0,63,0.00,,BKN090,0.00,0.00,VWS V14.01,2013-09-12 00:15:00,
2013-09-11 19:20:00,77.6,64.5,29.87,NNW,348,0.0,0.0,64,0.00,,BKN090,0.00,0.00,VWS V14.01,2013-09-12 00:20:00,
2013-09-11 19:25:00,77.3,64.2,29.87,NNW,348,0.0,0.0,64,0.00,,BKN090,0.00,0.00,VWS V14.01,2013-09-12 00:25:00,
2013-09-11 19:30:00,77.0,63.9,29.87,NNW,348,0.0,0.0,64,0.00,,CLR,0.00,0.00,VWS V14.01,2013-09-12 00:30:00,
2013-09-11 19:35:00,76.8,64.2,29.87,NNW,348,0.0,1.0,65,0.00,,CLR,0.00,0.00,VWS V14.01,2013-09-12 00:35:00,
2013-09-11 19:40:00,76.6,64.4,29.87,NNW,347,0.0,1.0,66,0.00,,CLR,0.00,0.00,VWS V14.01,2013-09-12 00:40:00,
2013-09-11 19:45:00,76.4,64.2,29.87,NNW,347,0.0,1.0,66,0.00,,CLR,0.00,0.00,VWS V14.01,2013-09-12 00:45:00,
2013-09-11 19:50:00,76.2,64.4,29.87,NNW,347,0.0,0.0,67,0.00,,CLR,0.00,0.00,VWS V14.01,2013-09-12 00:50:00,
2013-09-11 19:55:00,76.2,64.4,29.87,NNW,347,0.0,0.0,67,0.00,,CLR,0.00,0.00,VWS V14.01,2013-09-12 00:55:00,
2013-09-11 20:00:00,76.0,64.7,29.87,NNW,347,0.0,0.0,68,0.00,,CLR,0.00,0.00,VWS V14.01,2013-09-12 01:00:00,
2013-09-11 20:05:00,75.8,64.5,29.87,NNW,347,0.0,0.0,68,0.00,,CLR,0.00,0.00,VWS V14.01,2013-09-12 01:05:00,
2013-09-11 20:10:00,75.8,64.5,29.88,NNW,347,0.0,0.0,68,0.00,,CLR,0.00,0.00,VWS V14.01,2013-09-12 01:10:00,
2013-09-11 20:15:00,75.7,65.6,29.89,WNW,290,0.0,9.0,71,0.00,,CLR,0.00,0.00,VWS V14.01,2013-09-12 01:15:00,
2013-09-11 20:20:00,75.3,64.8,29.89,NW,318,2.0,2.0,70,0.00,,CLR,0.00,0.00,VWS V14.01,2013-09-12 01:20:00,
2013-09-11 20:25:00,75.0,65.0,29.89,NNW,337,0.0,5.0,71,0.00,,CLR,0.00,0.00,VWS V14.01,2013-09-12 01:25:00,
2013-09-11 20:30:00,74.7,65.1,29.90,WSW,252,4.0,4.0,72,0.00,,CLR,0.00,0.00,VWS V14.01,2013-09-12 01:30:00,
2013-09-11 20:35:00,74.4,64.8,29.90,West,273,0.0,4.0,72,0.00,,CLR,0.00,0.00,VWS V14.01,2013-09-12 01:35:00,
2013-09-11 20:40:00,74.2,65.0,29.90,West,272,0.0,1.0,73,0.00,,CLR,0.00,0.00,VWS V14.01,2013-09-12 01:40:00,
2013-09-11 20:45:00,73.9,64.7,29.90,West,274,0.0,1.0,73,0.00,,-RA,0.00,0.00,VWS V14.01,2013-09-12 01:45:00,
2013-09-11 20:50:00,73.6,64.4,29.91,West,274,0.0,0.0,73,0.00,,-RA,0.00,0.00,VWS V14.01,2013-09-12 01:50:00,
2013-09-11 20:55:00,73.4,64.6,29.91,West,274,0.0,0.0,74,0.00,,-RA,0.00,0.00,VWS V14.01,2013-09-12 01:55:00,
2013-09-11 21:00:00,73.1,64.3,29.91,West,274,0.0,1.0,74,0.00,,BKN100,0.00,0.00,VWS V14.01,2013-09-12 02:00:00,
2013-09-11 21:05:00,72.9,64.1,29.91,West,274,0.0,1.0,74,0.00,,BKN100,0.00,0.00,VWS V14.01,2013-09-12 02:05:00,
2013-09-11 21:10:00,72.6,63.8,29.91,West,273,0.0,0.0,74,0.00,,BKN100,0.00,0.00,VWS V14.01,2013-09-12 02:10:00,
2013-09-11 21:15:00,72.3,63.9,29.92,WNW,303,0.0,3.0,75,0.00,,BKN100,0.00,0.00,VWS V14.01,2013-09-12 02:15:00,
2013-09-11 21:20:00,71.9,63.2,29.92,NW,319,0.0,0.0,74,0.00,,BKN100,0.00,0.00,VWS V14.01,2013-09-12 02:20:00,
2013-09-11 21:25:00,71.6,63.3,29.92,NW,319,0.0,2.0,75,0.00,,BKN100,0.00,0.00,VWS V14.01,2013-09-12 02:25:00,
2013-09-11 21:30:00,71.4,62.3,29.92,NW,319,0.0,1.0,73,0.00,,SCT085,0.00,0.00,VWS V14.01,2013-09-12 02:30:00,
2013-09-11 21:35:00,71.3,62.2,29.92,NW,319,0.0,3.0,73,0.00,,SCT085,0.00,0.00,VWS V14.01,2013-09-12 02:35:00,
2013-09-11 21:40:00,71.3,61.8,29.92,NW,320,0.0,1.0,72,0.00,,SCT085,0.00,0.00,VWS V14.01,2013-09-12 02:40:00,
2013-09-11 21:45:00,71.2,62.1,29.92,NW,320,0.0,1.0,73,0.00,,SCT085,0.00,0.00,VWS V14.01,2013-09-12 02:45:00,
2013-09-11 21:50:00,71.1,62.0,29.92,NW,320,0.0,0.0,73,0.00,,SCT085,0.00,0.00,VWS V14.01,2013-09-12 02:50:00,
2013-09-11 21:55:00,70.9,62.2,29.92,NW,320,0.0,1.0,74,0.00,,SCT085,0.00,0.00,VWS V14.01,2013-09-12 02:55:00,
2013-09-11 22:00:00,70.7,62.0,29.92,NW,320,0.0,0.0,74,0.00,,CLR,0.00,0.00,VWS V14.01,2013-09-12 03:00:00,
2013-09-11 22:05:00,70.5,61.8,29.92,NW,320,0.0,1.0,74,0.00,,CLR,0.00,0.00,VWS V14.01,2013-09-12 03:05:00,
2013-09-11 22:10:00,70.3,61.6,29.92,NW,320,0.0,0.0,74,0.00,,CLR,0.00,0.00,VWS V14.01,2013-09-12 03:10:00,
2013-09-11 22:15:00,70.2,61.5,29.92,NW,320,0.0,0.0,74,0.00,,CLR,0.00,0.00,VWS V14.01,2013-09-12 03:15:00,
2013-09-11 22:20:00,70.0,61.3,29.92,NW,320,0.0,0.0,74,0.00,,CLR,0.00,0.00,VWS V14.01,2013-09-12 03:20:00,
2013-09-11 22:25:00,69.8,61.2,29.92,NW,320,0.0,0.0,74,0.00,,CLR,0.00,0.00,VWS V14.01,2013-09-12 03:25:00,
2013-09-11 22:30:00,69.5,60.9,29.92,NW,320,0.0,0.0,74,0.00,,CLR,0.00,0.00,VWS V14.01,2013-09-12 03:30:00,
2013-09-11 22:35:00,69.2,61.0,29.92,NW,320,0.0,0.0,75,0.00,,CLR,0.00,0.00,VWS V14.01,2013-09-12 03:35:00,
2013-09-11 22:40:00,68.9,60.7,29.92,NW,320,0.0,0.0,75,0.00,,CLR,0.00,0.00,VWS V14.01,2013-09-12 03:40:00,
2013-09-11 22:45:00,68.7,60.5,29.92,NW,320,0.0,0.0,75,0.00,,CLR,0.00,0.00,VWS V14.01,2013-09-12 03:45:00,
2013-09-11 22:50:00,68.4,60.5,29.92,NW,320,0.0,0.0,76,0.00,,CLR,0.00,0.00,VWS V14.01,2013-09-12 03:50:00,
2013-09-11 22:55:00,68.1,60.6,29.92,NW,320,0.0,0.0,77,0.00,,CLR,0.00,0.00,VWS V14.01,2013-09-12 03:55:00,
2013-09-11 23:00:00,67.7,60.6,29.92,NW,320,0.0,0.0,78,0.00,,CLR,0.00,0.00,VWS V14.01,2013-09-12 04:00:00,
2013-09-11 23:01:00,67.7,60.6,29.92,NW,320,0.0,0.0,78,0.00,,CLR,0.00,0.00,VWS V14.01,2013-09-12 04:01:00,
2013-09-11 23:06:00,67.3,60.6,29.93,NW,320,0.0,0.0,79,0.00,,CLR,0.00,0.00,VWS V14.01,2013-09-12 04:06:00,
2013-09-11 23:11:00,66.9,60.2,29.93,NW,320,0.0,0.0,79,0.00,,CLR,0.00,0.00,VWS V14.01,2013-09-12 04:11:00,
2013-09-11 23:16:00,66.6,60.2,29.93,NW,320,0.0,0.0,80,0.00,,CLR,0.00,0.00,VWS V14.01,2013-09-12 04:16:00,
2013-09-11 23:21:00,66.3,60.0,29.93,NW,320,0.0,0.0,80,0.00,,CLR,0.00,0.00,VWS V14.01,2013-09-12 04:21:00,
2013-09-11 23:26:00,66.1,60.1,29.93,NW,320,0.0,0.0,81,0.00,,CLR,0.00,0.00,VWS V14.01,2013-09-12 04:26:00,
2013-09-11 23:31:00,65.8,59.8,29.92,NW,320,0.0,0.0,81,0.00,,CLR,0.00,0.00,VWS V14.01,2013-09-12 04:31:00,
2013-09-11 23:36:00,65.6,60.0,29.92,NW,320,0.0,0.0,82,0.00,,CLR,0.00,0.00,VWS V14.01,2013-09-12 04:36:00,
2013-09-11 23:41:00,65.3,59.7,29.92,NW,320,0.0,0.0,82,0.00,,CLR,0.00,0.00,VWS V14.01,2013-09-12 04:41:00,
2013-09-11 23:46:00,65.0,59.4,29.92,NW,320,0.0,0.0,82,0.00,,CLR,0.00,0.00,VWS V14.01,2013-09-12 04:46:00,
2013-09-11 23:51:00,64.7,59.4,29.92,NW,320,0.0,0.0,83,0.00,,CLR,0.00,0.00,VWS V14.01,2013-09-12 04:51:00,
2013-09-11 23:56:00,64.3,59.0,29.92,NW,320,0.0,0.0,83,0.00,,CLR,0.00,0.00,VWS V14.01,2013-09-12 04:56:00,